Time;durP1;ratioP1;P1;durP2;ratioP2;P2;SDS_P1;SDS_P2;PMS_P1;PMS_P2;Temp;Humidity;BMP_temperature;BMP_pressure;BME280_temperature;BME280_humidity;BME280_pressure;Samples;Min_cycle;Max_cycle;Signal;HPM_P1;HPM_P2
2021/06/27 00:00:23;;;;;;;6.53;6.03;;;;;24.60;100640.00;;;;2051159;28;20220;-74
2021/06/27 00:01:24;;;;;;;7.10;6.60;;;;;24.50;100640.00;;;;2059430;28;20306;-74
2021/06/27 00:02:24;;;;;;;6.32;5.93;;;;;24.60;100644.00;;;;2051721;28;20232;-74
2021/06/27 00:03:25;;;;;;;6.87;6.37;;;;;24.50;100638.00;;;;2051758;28;20258;-74
2021/06/27 00:04:25;;;;;;;6.33;5.87;;;;;24.50;100639.00;;;;2059913;28;20211;-74
2021/06/27 00:05:26;;;;;;;6.10;5.70;;;;;24.50;100639.00;;;;2059021;28;20328;-74
2021/06/27 00:06:27;;;;;;;5.95;5.55;;;;;24.60;100646.00;;;;2058750;28;20297;-72
2021/06/27 00:07:27;;;;;;;6.40;6.00;;;;;24.50;100639.00;;;;2059333;28;20223;-73
2021/06/27 00:08:27;;;;;;;6.47;6.07;;;;;24.50;100636.00;;;;2060113;28;20693;-73
2021/06/27 00:09:28;;;;;;;6.73;6.23;;;;;24.60;100639.00;;;;2060066;28;20578;-72
2021/06/27 00:10:34;;;;;;;6.00;5.60;;;;;24.50;100631.00;;;;2060161;28;20251;-73
2021/06/27 00:11:35;;;;;;;6.40;6.00;;;;;24.50;100631.00;;;;2063505;28;20219;-74
2021/06/27 00:12:35;;;;;;;6.50;6.10;;;;;24.50;100639.00;;;;2055536;28;20220;-73
2021/06/27 00:13:36;;;;;;;5.97;5.57;;;;;24.50;100635.00;;;;2051245;28;20247;-73
2021/06/27 00:14:37;;;;;;;6.27;5.80;;;;;24.50;100638.00;;;;2059232;28;20305;-74
2021/06/27 00:15:39;;;;;;;6.63;6.13;;;;;24.50;100638.00;;;;2059840;28;20255;-74
2021/06/27 00:16:39;;;;;;;6.93;6.43;;;;;24.50;100632.00;;;;2059321;28;20461;-73
2021/06/27 00:17:40;;;;;;;7.10;6.60;;;;;24.50;100638.00;;;;2059336;28;20375;-74
2021/06/27 00:18:40;;;;;;;6.33;5.93;;;;;24.50;100635.00;;;;2051336;28;20360;-74
2021/06/27 00:19:41;;;;;;;5.93;5.53;;;;;24.50;100636.00;;;;2051391;28;20450;-74
2021/06/27 00:20:44;;;;;;;6.50;6.10;;;;;24.50;100634.00;;;;2059789;28;20809;-73
2021/06/27 00:21:45;;;;;;;6.45;6.00;;;;;24.50;100627.00;;;;2060057;28;20270;-74
2021/06/27 00:22:45;;;;;;;6.60;6.20;;;;;24.50;100629.00;;;;2059987;28;20803;-74
2021/06/27 00:23:47;;;;;;;6.10;5.70;;;;;24.50;100632.00;;;;2057658;28;20315;-74
2021/06/27 00:24:47;;;;;;;5.90;5.50;;;;;24.50;100639.00;;;;2061709;28;20596;-73
2021/06/27 00:25:47;;;;;;;6.10;5.70;;;;;24.50;100638.00;;;;2060937;28;20246;-74
2021/06/27 00:26:48;;;;;;;6.37;5.97;;;;;24.50;100639.00;;;;2059868;28;20211;-74
2021/06/27 00:27:48;;;;;;;6.93;6.43;;;;;24.50;100636.00;;;;2059145;28;20262;-74
2021/06/27 00:28:49;;;;;;;6.50;6.10;;;;;24.50;100636.00;;;;2059292;28;20215;-73
2021/06/27 00:29:50;;;;;;;6.25;5.85;;;;;24.50;100642.00;;;;2058798;28;20226;-74
2021/06/27 00:30:51;;;;;;;6.10;5.70;;;;;24.50;100636.00;;;;2059129;28;20246;-74
2021/06/27 00:31:52;;;;;;;6.30;5.82;;;;;24.50;100630.00;;;;2055463;28;20370;-74
2021/06/27 00:32:52;;;;;;;6.73;6.23;;;;;24.50;100632.00;;;;2051801;28;20341;-73
2021/06/27 00:33:53;;;;;;;6.63;6.13;;;;;24.50;100630.00;;;;2059259;28;20242;-74
2021/06/27 00:34:53;;;;;;;6.73;6.23;;;;;24.50;100625.00;;;;2051204;28;20228;-74
2021/06/27 00:35:53;;;;;;;7.03;6.53;;;;;24.50;100632.00;;;;2058981;28;20250;-74
2021/06/27 00:36:54;;;;;;;6.80;6.30;;;;;24.50;100630.00;;;;2060448;28;20612;-74
2021/06/27 00:37:54;;;;;;;5.93;5.53;;;;;24.50;100627.00;;;;2060646;28;20765;-74
2021/06/27 00:38:54;;;;;;;6.10;5.70;;;;;24.50;100629.00;;;;2060392;28;20679;-74
2021/06/27 00:39:55;;;;;;;6.60;6.10;;;;;24.50;100622.00;;;;2060345;28;20211;-74
2021/06/27 00:40:55;;;;;;;7.10;6.60;;;;;24.50;100628.00;;;;2059765;28;20215;-74
2021/06/27 00:41:56;;;;;;;6.80;6.30;;;;;24.50;100627.00;;;;2059101;28;20614;-74
2021/06/27 00:42:56;;;;;;;6.60;6.10;;;;;24.50;100631.00;;;;2058998;28;20313;-74
2021/06/27 00:43:56;;;;;;;6.80;6.30;;;;;24.50;100617.00;;;;2059663;28;20888;-74
2021/06/27 00:44:57;;;;;;;7.10;6.60;;;;;24.50;100625.00;;;;2059747;28;20223;-74
2021/06/27 00:45:57;;;;;;;7.20;6.70;;;;;24.50;100633.00;;;;2060668;28;20222;-74
2021/06/27 00:46:58;;;;;;;6.67;6.23;;;;;24.50;100634.00;;;;2059836;28;20220;-74
2021/06/27 00:48:01;;;;;;;6.70;6.20;;;;;24.50;100623.00;;;;2059648;28;20220;-74
2021/06/27 00:49:01;;;;;;;6.18;5.78;;;;;24.50;100632.00;;;;2060427;28;20717;-74
2021/06/27 00:50:04;;;;;;;6.20;5.80;;;;;24.50;100623.00;;;;2059765;28;20215;-74
2021/06/27 00:51:05;;;;;;;6.53;6.13;;;;;24.50;100625.00;;;;2058621;28;20222;-73
2021/06/27 00:52:05;;;;;;;6.27;5.87;;;;;24.50;100621.00;;;;2051061;28;20594;-74
2021/06/27 00:53:06;;;;;;;6.63;6.23;;;;;24.50;100625.00;;;;2059172;28;20208;-73
2021/06/27 00:54:06;;;;;;;6.50;6.00;;;;;24.50;100628.00;;;;2059718;28;20220;-74
2021/06/27 00:55:06;;;;;;;6.60;6.20;;;;;24.50;100631.00;;;;2059802;28;20239;-74
2021/06/27 00:56:07;;;;;;;6.43;6.03;;;;;24.50;100633.00;;;;2062894;28;20214;-73
2021/06/27 00:57:07;;;;;;;6.30;5.90;;;;;24.50;100622.00;;;;2059820;28;20216;-73
2021/06/27 00:58:08;;;;;;;6.30;5.90;;;;;24.50;100623.00;;;;2043892;28;20221;-73
2021/06/27 00:59:08;;;;;;;6.57;6.17;;;;;24.50;100625.00;;;;2051726;28;20582;-74
2021/06/27 01:00:13;;;;;;;7.00;6.50;;;;;24.50;100609.00;;;;2051601;28;20219;-73
2021/06/27 01:01:13;;;;;;;6.90;6.40;;;;;24.50;100623.00;;;;2051700;28;20743;-74
2021/06/27 01:02:14;;;;;;;7.20;6.60;;;;;24.50;100624.00;;;;2059031;28;20226;-74
2021/06/27 01:03:14;;;;;;;6.90;6.40;;;;;24.50;100623.00;;;;2058751;28;20210;-73
2021/06/27 01:04:14;;;;;;;6.93;6.43;;;;;24.50;100624.00;;;;2058920;28;20215;-73
2021/06/27 01:05:17;;;;;;;6.30;5.90;;;;;24.50;100625.00;;;;2059649;28;20212;-74
2021/06/27 01:06:17;;;;;;;7.07;6.57;;;;;24.50;100624.00;;;;2059798;28;20216;-74
2021/06/27 01:07:18;;;;;;;6.93;6.43;;;;;24.50;100623.00;;;;2059708;28;20575;-73
2021/06/27 01:08:18;;;;;;;6.80;6.30;;;;;24.50;100625.00;;;;2059654;28;20258;-74
2021/06/27 01:09:19;;;;;;;6.47;6.07;;;;;24.50;100627.00;;;;2043431;28;20307;-74
2021/06/27 01:10:19;;;;;;;7.13;6.63;;;;;24.50;100630.00;;;;2050673;28;20222;-74
2021/06/27 01:11:19;;;;;;;7.30;6.80;;;;;24.50;100628.00;;;;2059614;28;20211;-74
2021/06/27 01:12:20;;;;;;;6.80;6.30;;;;;24.50;100638.00;;;;2059541;28;20239;-74
2021/06/27 01:13:21;;;;;;;7.03;6.53;;;;;24.50;100629.00;;;;2059473;28;20783;-74
2021/06/27 01:14:21;;;;;;;6.88;6.38;;;;;24.50;100620.00;;;;2059472;28;20234;-74
2021/06/27 01:15:22;;;;;;;6.83;6.33;;;;;24.50;100620.00;;;;2059567;28;20581;-74
2021/06/27 01:16:22;;;;;;;7.10;6.70;;;;;24.50;100621.00;;;;2058819;28;20646;-74
2021/06/27 01:17:23;;;;;;;6.80;6.30;;;;;24.50;100623.00;;;;2059005;28;20218;-74
2021/06/27 01:18:23;;;;;;;6.37;5.97;;;;;24.50;100626.00;;;;2060029;28;20218;-74
2021/06/27 01:19:31;;;;;;;7.03;6.53;;;;;24.50;100624.00;;;;2060075;28;20211;-74
2021/06/27 01:20:34;;;;;;;6.40;5.90;;;;;24.50;100620.00;;;;2051499;28;20314;-74
2021/06/27 01:21:36;;;;;;;6.35;5.95;;;;;24.50;100628.00;;;;2052728;28;20219;-74
2021/06/27 01:22:37;;;;;;;6.57;6.13;;;;;24.50;100623.00;;;;2059609;28;20334;-74
2021/06/27 01:23:37;;;;;;;6.97;6.47;;;;;24.50;100622.00;;;;2057977;28;20694;-70
2021/06/27 01:24:37;;;;;;;6.10;5.70;;;;;24.50;100618.00;;;;2061267;28;20454;-70
2021/06/27 01:25:39;;;;;;;6.10;5.70;;;;;24.50;100623.00;;;;2060219;28;20214;-73
2021/06/27 01:26:39;;;;;;;6.43;6.00;;;;;24.50;100616.00;;;;2051460;28;20275;-74
2021/06/27 01:27:40;;;;;;;6.53;6.07;;;;;24.50;100614.00;;;;2058762;28;20318;-73
2021/06/27 01:28:40;;;;;;;6.80;6.30;;;;;24.50;100612.00;;;;2059523;28;20219;-74
2021/06/27 01:29:40;;;;;;;6.10;5.70;;;;;24.50;100611.00;;;;2060149;28;20716;-73
2021/06/27 01:30:41;;;;;;;7.13;6.63;;;;;24.50;100609.00;;;;2059396;28;20745;-74
2021/06/27 01:31:41;;;;;;;6.43;5.93;;;;;24.50;100609.00;;;;2060528;28;20716;-74
2021/06/27 01:32:43;;;;;;;6.70;6.20;;;;;24.50;100612.00;;;;2058375;28;20219;-73
2021/06/27 01:33:46;;;;;;;6.85;6.35;;;;;24.50;100604.00;;;;2059510;28;20224;-74
2021/06/27 01:34:47;;;;;;;6.63;6.13;;;;;24.50;100610.00;;;;2059483;28;20246;-73
2021/06/27 01:35:47;;;;;;;6.50;6.10;;;;;24.50;100614.00;;;;2051547;28;20330;-73
2021/06/27 01:36:48;;;;;;;6.30;5.80;;;;;24.50;100619.00;;;;2051452;28;20215;-74
2021/06/27 01:37:51;;;;;;;6.90;6.40;;;;;24.50;100616.00;;;;2058771;28;20303;-73
2021/06/27 01:38:51;;;;;;;6.32;5.90;;;;;24.50;100609.00;;;;2058450;28;20211;-74
2021/06/27 01:39:52;;;;;;;6.77;6.27;;;;;24.50;100614.00;;;;2058766;28;20211;-74
2021/06/27 01:40:52;;;;;;;6.27;5.80;;;;;24.50;100618.00;;;;2059128;28;20216;-74
2021/06/27 01:41:52;;;;;;;6.03;5.53;;;;;24.50;100611.00;;;;2059898;28;20773;-74
2021/06/27 01:43:04;;;;;;;6.30;5.90;;;;;24.50;100611.00;;;;2060151;28;20241;-74
2021/06/27 01:44:04;;;;;;;6.32;5.93;;;;;24.50;100611.00;;;;2059001;28;20299;-74
2021/06/27 01:45:11;;;;;;;6.80;6.30;;;;;24.30;100621.00;;;;2052092;28;20562;-74
2021/06/27 01:46:11;;;;;;;6.53;6.13;;;;;24.50;100618.00;;;;2041532;28;20745;-73
2021/06/27 01:47:12;;;;;;;7.03;6.53;;;;;24.50;100613.00;;;;2058794;28;20306;-73
2021/06/27 01:48:12;;;;;;;7.20;6.70;;;;;24.50;100614.00;;;;2059894;28;20208;-73
2021/06/27 01:49:13;;;;;;;7.90;7.30;;;;;24.50;100613.00;;;;2059566;28;20215;-73
2021/06/27 01:50:13;;;;;;;6.87;6.43;;;;;24.50;100624.00;;;;2059314;28;20211;-73
2021/06/27 01:51:14;;;;;;;6.80;6.40;;;;;24.50;100623.00;;;;2059173;28;20214;-73
2021/06/27 01:52:14;;;;;;;6.27;5.87;;;;;24.50;100621.00;;;;2050729;28;20203;-74
2021/06/27 01:53:15;;;;;;;6.37;5.97;;;;;24.50;100625.00;;;;2059528;28;20213;-74
2021/06/27 01:54:16;;;;;;;6.65;6.18;;;;;24.50;100616.00;;;;2059368;28;20205;-74
2021/06/27 01:55:16;;;;;;;6.40;6.00;;;;;24.50;100624.00;;;;2059272;28;20654;-74
2021/06/27 01:56:16;;;;;;;6.73;6.23;;;;;24.50;100624.00;;;;2062315;28;20957;-74
2021/06/27 01:57:18;;;;;;;6.30;5.90;;;;;24.50;100623.00;;;;2062225;28;20268;-74
2021/06/27 01:58:19;;;;;;;6.78;6.32;;;;;24.50;100625.00;;;;2059161;28;20225;-74
2021/06/27 01:59:19;;;;;;;6.80;6.30;;;;;24.50;100619.00;;;;2059193;28;20216;-73
2021/06/27 02:00:20;;;;;;;7.20;6.70;;;;;24.50;100619.00;;;;2059572;28;20242;-74
2021/06/27 02:01:23;;;;;;;6.80;6.30;;;;;24.40;100623.00;;;;2059007;28;20220;-73
2021/06/27 02:02:23;;;;;;;6.75;6.25;;;;;24.50;100621.00;;;;2059824;28;20219;-74
2021/06/27 02:03:23;;;;;;;6.80;6.30;;;;;24.50;100625.00;;;;2059943;28;20266;-74
2021/06/27 02:04:25;;;;;;;6.27;5.87;;;;;24.50;100628.00;;;;2059218;28;20207;-74
2021/06/27 02:05:26;;;;;;;6.63;6.13;;;;;24.50;100625.00;;;;2058524;28;20258;-74
2021/06/27 02:06:26;;;;;;;7.33;6.83;;;;;24.50;100620.00;;;;2058575;28;20211;-74
2021/06/27 02:07:27;;;;;;;6.30;5.90;;;;;24.50;100615.00;;;;2050504;28;20216;-74
2021/06/27 02:08:33;;;;;;;6.63;6.13;;;;;24.50;100618.00;;;;2051196;28;20531;-74
2021/06/27 02:09:34;;;;;;;7.13;6.63;;;;;24.50;100618.00;;;;2059169;28;22231;-74
2021/06/27 02:10:34;;;;;;;6.80;6.30;;;;;24.50;100613.00;;;;2059007;28;20219;-74
2021/06/27 02:11:34;;;;;;;6.23;5.83;;;;;24.50;100609.00;;;;2059339;28;20223;-74
2021/06/27 02:12:35;;;;;;;6.13;5.73;;;;;24.50;100611.00;;;;2058268;28;20233;-74
2021/06/27 02:13:35;;;;;;;6.30;5.90;;;;;24.50;100612.00;;;;2057685;28;20214;-74
2021/06/27 02:14:39;;;;;;;6.17;5.77;;;;;24.50;100610.00;;;;2049878;28;20430;-74
2021/06/27 02:15:39;;;;;;;6.75;6.22;;;;;24.50;100615.00;;;;2051085;28;20698;-74
2021/06/27 02:16:40;;;;;;;6.50;6.00;;;;;24.50;100612.00;;;;2058664;28;20211;-74
2021/06/27 02:17:56;;;;;;;6.93;6.43;;;;;24.50;100614.00;;;;2058347;28;20212;-74
2021/06/27 02:18:57;;;;;;;6.97;6.47;;;;;24.50;100617.00;;;;2065898;28;20337;-74
2021/06/27 02:19:57;;;;;;;6.17;5.73;;;;;24.40;100621.00;;;;2066053;28;20892;-74
2021/06/27 02:20:59;;;;;;;6.43;6.03;;;;;24.40;100622.00;;;;2058448;28;20242;-74
2021/06/27 02:22:00;;;;;;;7.25;6.75;;;;;24.50;100625.00;;;;2057897;28;20880;-74
2021/06/27 02:23:00;;;;;;;6.60;6.10;;;;;24.50;100618.00;;;;2057438;28;20262;-73
2021/06/27 02:24:01;;;;;;;6.10;5.70;;;;;24.40;100622.00;;;;2056793;28;20674;-73
2021/06/27 02:25:01;;;;;;;6.33;5.83;;;;;24.50;100620.00;;;;2059544;28;20758;-74
2021/06/27 02:26:02;;;;;;;6.50;6.10;;;;;24.40;100628.00;;;;2058996;28;20234;-74
2021/06/27 02:27:03;;;;;;;6.90;6.40;;;;;24.40;100622.00;;;;2059331;28;20929;-74
2021/06/27 02:28:04;;;;;;;6.90;6.40;;;;;24.50;100619.00;;;;2059287;28;20271;-74
2021/06/27 02:29:05;;;;;;;5.83;5.43;;;;;24.50;100619.00;;;;2059321;28;20215;-74
2021/06/27 02:30:08;;;;;;;7.25;6.72;;;;;24.40;100623.00;;;;2058540;28;20242;-74
2021/06/27 02:31:08;;;;;;;6.68;6.20;;;;;24.50;100623.00;;;;2065719;28;20229;-74
2021/06/27 02:32:08;;;;;;;7.07;6.57;;;;;24.40;100618.00;;;;2065688;28;20308;-73
2021/06/27 02:33:09;;;;;;;6.50;6.10;;;;;24.50;100619.00;;;;2058331;28;20239;-74
2021/06/27 02:34:09;;;;;;;6.77;6.27;;;;;24.40;100618.00;;;;2058499;28;20219;-74
2021/06/27 02:35:10;;;;;;;6.73;6.23;;;;;24.40;100614.00;;;;2058437;28;20853;-74
2021/06/27 02:36:10;;;;;;;7.03;6.53;;;;;24.40;100614.00;;;;2059447;28;20222;-74
2021/06/27 02:37:11;;;;;;;6.80;6.30;;;;;24.40;100619.00;;;;2059011;28;20215;-74
2021/06/27 02:38:11;;;;;;;5.97;5.57;;;;;24.50;100617.00;;;;2058591;28;20341;-73
2021/06/27 02:39:11;;;;;;;6.40;6.00;;;;;24.40;100613.00;;;;2058101;28;20274;-74
2021/06/27 02:40:12;;;;;;;6.83;6.33;;;;;24.40;100617.00;;;;2058155;28;20223;-74
2021/06/27 02:41:12;;;;;;;6.27;5.87;;;;;24.50;100619.00;;;;2058299;28;20306;-74
2021/06/27 02:42:13;;;;;;;6.20;5.80;;;;;24.40;100613.00;;;;2058488;28;20211;-73
2021/06/27 02:43:14;;;;;;;7.00;6.50;;;;;24.40;100616.00;;;;2059680;28;20762;-74
2021/06/27 02:44:14;;;;;;;6.18;5.78;;;;;24.40;100611.00;;;;2059640;28;20262;-73
2021/06/27 02:45:15;;;;;;;6.33;5.83;;;;;24.50;100614.00;;;;2059684;28;20623;-74
2021/06/27 02:46:15;;;;;;;6.10;5.70;;;;;24.40;100604.00;;;;2059494;28;20234;-73
2021/06/27 02:47:16;;;;;;;7.43;6.93;;;;;24.40;100620.00;;;;2058723;28;20751;-74
2021/06/27 02:48:16;;;;;;;6.50;6.10;;;;;24.40;100618.00;;;;2058759;28;20231;-74
2021/06/27 02:49:18;;;;;;;6.40;5.80;;;;;24.40;100621.00;;;;2058330;28;20215;-74
2021/06/27 02:50:18;;;;;;;6.57;6.07;;;;;24.40;100627.00;;;;2058058;28;20219;-74
2021/06/27 02:51:19;;;;;;;7.27;6.77;;;;;24.40;100626.00;;;;2059586;28;20633;-73
2021/06/27 02:52:20;;;;;;;6.65;6.15;;;;;24.40;100614.00;;;;2059586;28;20211;-73
2021/06/27 02:53:20;;;;;;;6.13;5.73;;;;;24.40;100616.00;;;;2058608;28;20245;-71
2021/06/27 02:54:21;;;;;;;7.10;6.60;;;;;24.40;100610.00;;;;2059507;28;20206;-72
2021/06/27 02:55:23;;;;;;;6.40;6.00;;;;;24.40;100612.00;;;;2058838;28;20219;-73
2021/06/27 02:56:24;;;;;;;6.82;6.32;;;;;24.40;100613.00;;;;2053300;28;20573;-73
2021/06/27 02:57:25;;;;;;;6.68;6.18;;;;;24.40;100610.00;;;;2051065;28;20220;-73
2021/06/27 02:58:25;;;;;;;7.07;6.57;;;;;24.40;100613.00;;;;2058710;28;20293;-74
2021/06/27 02:59:25;;;;;;;6.73;6.23;;;;;24.40;100614.00;;;;2058803;28;20207;-74
2021/06/27 03:00:26;;;;;;;6.20;5.80;;;;;24.40;100612.00;;;;2057938;28;20298;-74
2021/06/27 03:01:26;;;;;;;6.90;6.40;;;;;24.40;100604.00;;;;2050112;28;20219;-72
2021/06/27 03:02:28;;;;;;;6.47;6.07;;;;;24.40;100608.00;;;;2058038;28;20223;-73
2021/06/27 03:03:28;;;;;;;6.63;6.22;;;;;24.40;100605.00;;;;2058888;28;20413;-73
2021/06/27 03:04:28;;;;;;;7.80;7.00;;;;;24.40;100601.00;;;;2058942;28;20212;-73
2021/06/27 03:05:29;;;;;;;6.80;6.30;;;;;24.40;100591.00;;;;2059610;28;20212;-73
2021/06/27 03:06:29;;;;;;;6.70;6.30;;;;;24.40;100591.00;;;;2058763;28;20675;-74
2021/06/27 03:07:30;;;;;;;6.40;6.00;;;;;24.40;100598.00;;;;2050282;28;20302;-74
2021/06/27 03:08:31;;;;;;;6.70;6.20;;;;;24.40;100593.00;;;;2058062;28;20388;-74
2021/06/27 03:09:31;;;;;;;6.40;6.00;;;;;24.40;100595.00;;;;2058541;28;20219;-74
2021/06/27 03:10:32;;;;;;;6.13;5.70;;;;;24.40;100598.00;;;;2057909;28;20455;-74
2021/06/27 03:11:32;;;;;;;6.73;6.23;;;;;24.40;100592.00;;;;2050254;28;20224;-73
2021/06/27 03:12:32;;;;;;;6.23;5.83;;;;;24.40;100600.00;;;;2058594;28;20216;-74
2021/06/27 03:13:33;;;;;;;6.80;6.30;;;;;24.40;100591.00;;;;2058766;28;20278;-74
2021/06/27 03:14:34;;;;;;;6.70;6.20;;;;;24.40;100591.00;;;;2058880;28;20222;-74
2021/06/27 03:15:34;;;;;;;6.90;6.40;;;;;24.40;100590.00;;;;2059361;28;20211;-74
2021/06/27 03:16:34;;;;;;;6.20;5.80;;;;;24.40;100577.00;;;;2058795;28;20245;-74
2021/06/27 03:17:35;;;;;;;6.67;6.17;;;;;24.40;100588.00;;;;2058813;28;20211;-74
2021/06/27 03:18:35;;;;;;;7.47;6.97;;;;;24.40;100593.00;;;;2058556;28;20589;-74
2021/06/27 03:19:35;;;;;;;6.13;5.73;;;;;24.40;100592.00;;;;2058703;28;20215;-74
2021/06/27 03:20:36;;;;;;;6.60;6.10;;;;;24.40;100589.00;;;;2058067;28;20212;-74
2021/06/27 03:21:36;;;;;;;6.70;6.20;;;;;24.40;100588.00;;;;2060816;28;20229;-74
2021/06/27 03:22:37;;;;;;;6.50;6.10;;;;;24.40;100581.00;;;;2057985;28;20211;-74
2021/06/27 03:23:37;;;;;;;6.87;6.37;;;;;24.40;100575.00;;;;2050912;28;20207;-73
2021/06/27 03:24:37;;;;;;;6.50;6.07;;;;;24.40;100589.00;;;;2053681;28;20458;-74
2021/06/27 03:25:39;;;;;;;6.90;6.40;;;;;24.40;100577.00;;;;2066635;28;20260;-74
2021/06/27 03:26:40;;;;;;;6.00;5.60;;;;;24.40;100589.00;;;;2057887;28;20218;-74
2021/06/27 03:27:40;;;;;;;7.20;6.70;;;;;24.40;100576.00;;;;2049715;28;20275;-73
2021/06/27 03:28:43;;;;;;;6.70;6.10;;;;;24.40;100576.00;;;;2049996;28;20794;-74
2021/06/27 03:29:44;;;;;;;7.07;6.57;;;;;24.40;100574.00;;;;2058243;28;20816;-74
2021/06/27 03:30:44;;;;;;;6.67;6.17;;;;;24.40;100577.00;;;;2059191;28;20250;-74
2021/06/27 03:31:44;;;;;;;6.30;5.90;;;;;24.40;100575.00;;;;2058661;28;20310;-74
2021/06/27 03:32:45;;;;;;;6.37;5.93;;;;;24.40;100564.00;;;;2058099;28;20227;-74
2021/06/27 03:33:45;;;;;;;7.03;6.53;;;;;24.40;100569.00;;;;2057748;28;20223;-74
2021/06/27 03:34:45;;;;;;;6.60;6.17;;;;;24.40;100572.00;;;;2057845;28;20301;-74
2021/06/27 03:35:46;;;;;;;6.50;6.03;;;;;24.40;100562.00;;;;2058681;28;20226;-74
2021/06/27 03:36:46;;;;;;;6.83;6.33;;;;;24.40;100572.00;;;;2058955;28;20295;-74
2021/06/27 03:40:08;;;;;;;7.00;6.50;;;;;24.40;100576.00;;;;2055077;28;20686;-74
2021/06/27 03:41:09;;;;;;;7.20;6.70;;;;;24.40;100576.00;;;;2065825;28;20768;-74
2021/06/27 03:42:09;;;;;;;5.93;5.53;;;;;24.40;100563.00;;;;2066119;28;20447;-74
2021/06/27 03:43:10;;;;;;;6.43;6.03;;;;;24.40;100576.00;;;;2058862;28;20299;-74
2021/06/27 03:44:10;;;;;;;6.17;5.77;;;;;24.40;100566.00;;;;2050768;28;20307;-74
2021/06/27 03:45:12;;;;;;;7.23;6.73;;;;;24.40;100576.00;;;;2050850;28;20224;-74
2021/06/27 03:46:14;;;;;;;7.32;6.82;;;;;24.40;100574.00;;;;2058522;28;20222;-74
2021/06/27 03:47:14;;;;;;;6.60;6.10;;;;;24.40;100569.00;;;;2058457;28;20227;-74
2021/06/27 03:48:14;;;;;;;6.30;5.90;;;;;24.40;100575.00;;;;2058135;28;20262;-74
2021/06/27 03:49:15;;;;;;;7.10;6.60;;;;;24.40;100573.00;;;;2057886;28;20208;-74
2021/06/27 03:50:18;;;;;;;6.80;6.40;;;;;24.40;100576.00;;;;2058404;28;20559;-74
2021/06/27 03:51:18;;;;;;;6.57;6.13;;;;;24.40;100575.00;;;;2057857;28;20219;-74
2021/06/27 03:52:18;;;;;;;7.37;6.70;;;;;24.40;100590.00;;;;2057965;28;20298;-74
2021/06/27 03:53:19;;;;;;;6.60;6.10;;;;;24.40;100575.00;;;;2059511;28;20777;-74
2021/06/27 03:54:19;;;;;;;7.07;6.57;;;;;24.40;100573.00;;;;2057733;28;20350;-74
2021/06/27 03:55:19;;;;;;;6.93;6.43;;;;;24.40;100574.00;;;;2059270;28;20238;-74
2021/06/27 03:56:20;;;;;;;6.83;6.33;;;;;24.40;100577.00;;;;2060131;28;20218;-74
2021/06/27 03:57:20;;;;;;;6.57;6.07;;;;;24.40;100581.00;;;;2058558;28;20236;-74
2021/06/27 03:58:20;;;;;;;6.70;6.20;;;;;24.40;100572.00;;;;2058712;28;20674;-74
2021/06/27 03:59:21;;;;;;;6.30;5.90;;;;;24.40;100575.00;;;;2058834;28;20679;-74
2021/06/27 04:00:21;;;;;;;7.00;6.50;;;;;24.40;100578.00;;;;2058359;28;20211;-74
2021/06/27 04:01:21;;;;;;;6.87;6.40;;;;;24.40;100573.00;;;;2057848;28;20297;-74
2021/06/27 04:02:22;;;;;;;6.53;6.03;;;;;24.40;100573.00;;;;2057991;28;20219;-74
2021/06/27 04:03:22;;;;;;;6.10;5.70;;;;;24.40;100577.00;;;;2058653;28;20226;-74
2021/06/27 04:04:23;;;;;;;7.10;6.60;;;;;24.40;100571.00;;;;2059250;28;20692;-74
2021/06/27 04:05:23;;;;;;;6.70;6.20;;;;;24.40;100575.00;;;;2060797;28;20212;-74
2021/06/27 04:06:23;;;;;;;6.30;5.90;;;;;24.40;100576.00;;;;2057427;28;20219;-74
2021/06/27 04:07:24;;;;;;;6.43;6.03;;;;;24.40;100573.00;;;;2059272;28;20222;-74
2021/06/27 04:08:24;;;;;;;7.20;6.60;;;;;24.40;100576.00;;;;2060752;28;20242;-74
2021/06/27 04:09:24;;;;;;;6.80;6.30;;;;;24.40;100576.00;;;;2060712;28;20215;-74
2021/06/27 04:10:25;;;;;;;7.30;6.70;;;;;24.40;100581.00;;;;2060403;28;20212;-74
2021/06/27 04:11:25;;;;;;;6.80;6.30;;;;;24.40;100597.00;;;;2060690;28;20681;-74
2021/06/27 04:12:25;;;;;;;7.30;6.80;;;;;24.40;100579.00;;;;2059409;28;20755;-74
2021/06/27 04:13:26;;;;;;;7.10;6.60;;;;;24.40;100576.00;;;;2059428;28;20211;-74
2021/06/27 04:14:27;;;;;;;6.30;5.90;;;;;24.40;100580.00;;;;2059779;28;20309;-74
2021/06/27 04:15:27;;;;;;;6.73;6.33;;;;;24.40;100580.00;;;;2060013;28;20585;-74
2021/06/27 04:16:29;;;;;;;6.67;6.20;;;;;24.40;100580.00;;;;2060322;28;20625;-74
2021/06/27 04:17:30;;;;;;;6.75;6.25;;;;;24.40;100576.00;;;;2060644;28;20226;-74
2021/06/27 04:18:30;;;;;;;6.87;6.37;;;;;24.40;100589.00;;;;2059908;28;20732;-74
2021/06/27 04:19:31;;;;;;;7.10;6.60;;;;;24.40;100593.00;;;;2060078;28;21015;-74
2021/06/27 04:20:31;;;;;;;6.83;6.33;;;;;24.40;100598.00;;;;2060234;28;20469;-74
2021/06/27 04:21:32;;;;;;;7.17;6.67;;;;;24.40;100595.00;;;;2059939;28;21158;-74
2021/06/27 04:22:32;;;;;;;7.17;6.60;;;;;24.40;100591.00;;;;2059300;28;20223;-74
2021/06/27 04:23:34;;;;;;;6.80;6.30;;;;;24.40;100596.00;;;;2059272;28;20231;-74
2021/06/27 04:24:34;;;;;;;6.93;6.43;;;;;24.40;100589.00;;;;2059753;28;20238;-74
2021/06/27 04:25:36;;;;;;;6.43;5.90;;;;;24.40;100591.00;;;;2059319;28;20218;-74
2021/06/27 04:26:36;;;;;;;7.18;6.68;;;;;24.40;100588.00;;;;2061970;28;20207;-74
2021/06/27 04:27:37;;;;;;;6.90;6.40;;;;;24.40;100580.00;;;;2060581;28;20246;-74
2021/06/27 04:28:37;;;;;;;7.30;6.80;;;;;24.40;100581.00;;;;2059860;28;20211;-74
2021/06/27 04:29:37;;;;;;;6.40;5.93;;;;;24.40;100564.00;;;;2059219;28;20283;-74
2021/06/27 04:30:38;;;;;;;6.93;6.43;;;;;24.40;100572.00;;;;2059560;28;20215;-74
2021/06/27 04:31:40;;;;;;;7.00;6.50;;;;;24.40;100563.00;;;;2059631;28;20733;-74
2021/06/27 04:32:40;;;;;;;7.25;6.75;;;;;24.40;100565.00;;;;2059771;28;20224;-74
2021/06/27 04:33:40;;;;;;;6.90;6.40;;;;;24.40;100571.00;;;;2060594;28;20211;-74
2021/06/27 04:34:41;;;;;;;7.00;6.50;;;;;24.40;100564.00;;;;2060464;28;20780;-74
2021/06/27 04:35:41;;;;;;;6.83;6.33;;;;;24.40;100555.00;;;;2060673;28;20865;-74
2021/06/27 04:36:41;;;;;;;6.20;5.80;;;;;24.40;100560.00;;;;2060606;28;20561;-74
2021/06/27 04:37:42;;;;;;;6.77;6.27;;;;;24.40;100553.00;;;;2059923;28;20219;-74
2021/06/27 04:38:42;;;;;;;6.90;6.40;;;;;24.40;100548.00;;;;2059933;28;20242;-74
2021/06/27 04:39:43;;;;;;;7.03;6.50;;;;;24.40;100555.00;;;;2059698;28;20218;-74
2021/06/27 04:40:43;;;;;;;7.53;7.03;;;;;24.40;100544.00;;;;2058878;28;20216;-74
2021/06/27 04:41:47;;;;;;;7.87;7.37;;;;;24.40;100549.00;;;;2059394;28;20231;-73
2021/06/27 04:42:48;;;;;;;7.13;6.63;;;;;24.40;100555.00;;;;2060585;28;20219;-74
2021/06/27 04:43:48;;;;;;;7.23;6.70;;;;;24.40;100549.00;;;;2060503;28;20717;-73
2021/06/27 04:44:48;;;;;;;8.00;7.30;;;;;24.40;100563.00;;;;2060286;28;20751;-74
2021/06/27 04:45:49;;;;;;;7.23;6.73;;;;;24.40;100555.00;;;;2059819;28;20215;-73
2021/06/27 04:46:49;;;;;;;6.87;6.37;;;;;24.40;100556.00;;;;2057454;28;20264;-74
2021/06/27 04:47:49;;;;;;;5.93;5.53;;;;;24.40;100563.00;;;;2059610;28;20302;-74
2021/06/27 04:48:50;;;;;;;6.73;6.23;;;;;24.40;100564.00;;;;2059604;28;20218;-74
2021/06/27 04:49:50;;;;;;;7.20;6.60;;;;;24.40;100546.00;;;;2059176;28;20215;-74
2021/06/27 04:50:51;;;;;;;7.47;6.90;;;;;24.40;100559.00;;;;2051338;28;20220;-74
2021/06/27 04:51:51;;;;;;;6.53;6.03;;;;;24.40;100544.00;;;;2059414;28;20298;-74
2021/06/27 04:52:52;;;;;;;6.90;6.40;;;;;24.40;100566.00;;;;2059276;28;20261;-74
2021/06/27 04:53:52;;;;;;;7.45;6.85;;;;;24.40;100551.00;;;;2041990;28;20312;-74
2021/06/27 04:54:53;;;;;;;6.47;6.07;;;;;24.40;100549.00;;;;2053803;28;20769;-74
2021/06/27 04:55:58;;;;;;;7.30;6.80;;;;;24.40;100563.00;;;;2061309;28;20991;-74
2021/06/27 04:56:58;;;;;;;6.88;6.28;;;;;24.40;100560.00;;;;2059719;28;20223;-74
2021/06/27 04:57:59;;;;;;;6.83;6.33;;;;;24.40;100555.00;;;;2060265;28;20215;-74
2021/06/27 04:58:59;;;;;;;7.43;6.73;;;;;24.40;100555.00;;;;2060493;28;20219;-74
2021/06/27 04:59:59;;;;;;;6.70;6.20;;;;;24.40;100547.00;;;;2060447;28;20223;-74
2021/06/27 05:01:00;;;;;;;6.23;5.83;;;;;24.40;100544.00;;;;2060316;28;20230;-74
2021/06/27 05:02:00;;;;;;;6.80;6.37;;;;;24.40;100553.00;;;;2059846;28;20215;-74
2021/06/27 05:03:01;;;;;;;6.93;6.43;;;;;24.40;100554.00;;;;2057965;28;20238;-74